createdAt,value
2022-09-01T00:00:52.460Z,1.42
2022-09-01T00:03:55.944Z,0.90
2022-09-01T00:06:59.963Z,1.00
2022-09-01T00:10:05.262Z,1.25
2022-09-01T00:13:08.947Z,1.27
2022-09-01T00:16:14.231Z,1.20
2022-09-01T00:19:16.664Z,1.30
2022-09-01T00:22:18.962Z,1.25
2022-09-01T00:25:21.963Z,1.20
2022-09-01T00:28:24.116Z,1.15
2022-09-01T00:31:33.278Z,1.10
2022-09-01T00:34:35.597Z,1.13
2022-09-01T00:37:37.725Z,1.42
2022-09-01T00:40:40.228Z,1.42
2022-09-01T00:43:56.296Z,1.05
2022-09-01T00:46:59.742Z,1.15
2022-09-01T00:50:06.316Z,1.20
2022-09-01T00:53:09.826Z,1.15
2022-09-01T00:56:13.757Z,1.38
2022-09-01T00:59:18.497Z,1.10
2022-09-01T01:02:20.885Z,1.20
2022-09-01T01:05:28.066Z,1.15
2022-09-01T01:08:36.578Z,1.40
2022-09-01T01:11:40.719Z,1.20
2022-09-01T01:14:45.972Z,1.15
2022-09-01T01:17:48.308Z,1.20
2022-09-01T01:21:26.773Z,1.40
2022-09-01T01:24:33.456Z,1.30
2022-09-01T01:27:42.563Z,1.10
2022-09-01T01:30:52.853Z,1.10
2022-09-01T01:33:57.037Z,1.30
2022-09-01T01:37:00.033Z,1.30
2022-09-01T01:40:03.067Z,1.10
2022-09-01T01:43:05.922Z,1.30
2022-09-01T01:46:10.288Z,1.38
2022-09-01T01:49:19.685Z,1.30
2022-09-01T01:52:26.306Z,1.33
2022-09-01T01:55:31.251Z,1.23
2022-09-01T01:58:36.107Z,1.50
2022-09-01T02:01:49.370Z,1.45
2022-09-01T02:04:51.647Z,1.15
2022-09-01T02:07:56.321Z,1.20
2022-09-01T02:11:01.145Z,1.65
2022-09-01T02:14:07.861Z,1.30
2022-09-01T02:17:10.348Z,1.35
2022-09-01T02:20:15.530Z,1.58
2022-09-01T02:23:24.596Z,1.25
2022-09-01T02:26:39.741Z,1.40
2022-09-01T02:29:43.370Z,1.30
2022-09-01T02:32:45.976Z,1.55
2022-09-01T02:35:55.179Z,1.25
2022-09-01T02:38:57.505Z,1.52
2022-09-01T02:42:01.762Z,1.40
2022-09-01T02:45:04.818Z,1.50
2022-09-01T02:48:10.377Z,1.55
2022-09-01T02:51:17.080Z,1.70
2022-09-01T02:54:19.667Z,1.30
2022-09-01T02:57:23.132Z,1.48
2022-09-01T03:00:33.163Z,1.42
2022-09-01T03:03:35.934Z,1.35
2022-09-01T03:06:39.368Z,1.52
2022-09-01T03:09:43.437Z,1.42
2022-09-01T03:12:45.641Z,1.48
2022-09-01T03:15:51.515Z,1.30
2022-09-01T03:18:53.792Z,1.42
2022-09-01T03:22:00.302Z,1.73
2022-09-01T03:25:08.398Z,1.50
2022-09-01T03:28:13.251Z,1.42
2022-09-01T03:31:15.995Z,1.35
2022-09-01T03:34:23.667Z,1.63
2022-09-01T03:37:28.810Z,1.55
2022-09-01T03:40:36.126Z,1.80
2022-09-01T03:43:38.476Z,1.60
2022-09-01T03:46:48.262Z,1.73
2022-09-01T03:49:51.851Z,1.45
2022-09-01T03:52:59.006Z,1.50
2022-09-01T03:56:01.686Z,1.50
2022-09-01T03:59:04.553Z,1.50
2022-09-01T04:02:09.760Z,1.60
2022-09-01T04:05:12.290Z,1.50
2022-09-01T04:08:14.516Z,1.67
2022-09-01T04:11:24.369Z,1.65
2022-09-01T04:14:29.285Z,1.85
2022-09-01T04:17:51.534Z,1.40
2022-09-01T04:20:57.019Z,1.92
2022-09-01T04:24:00.326Z,1.90
2022-09-01T04:27:04.195Z,1.90
2022-09-01T04:30:10.872Z,1.65
2022-09-01T04:33:16.649Z,1.70
2022-09-01T04:36:30.843Z,1.90
2022-09-01T04:39:33.249Z,1.70
2022-09-01T04:42:35.723Z,1.90
2022-09-01T04:45:38.777Z,1.60
2022-09-01T04:48:46.062Z,1.85
2022-09-01T04:51:54.294Z,1.60
2022-09-01T04:54:58.830Z,1.50
2022-09-01T04:58:01.958Z,1.60
2022-09-01T05:01:15.597Z,1.70
2022-09-01T05:04:33.989Z,1.67
2022-09-01T05:07:38.111Z,1.25
2022-09-01T05:10:46.890Z,1.40
2022-09-01T05:13:57.941Z,1.20
2022-09-01T05:17:02.180Z,1.40
2022-09-01T05:20:05.581Z,1.30
2022-09-01T05:23:09.358Z,1.20
2022-09-01T05:26:20.797Z,1.13
2022-09-01T05:29:22.995Z,1.20
2022-09-01T05:32:26.792Z,1.27
2022-09-01T05:35:32.564Z,1.50
2022-09-01T05:38:35.769Z,1.13
2022-09-01T05:41:40.236Z,1.20
2022-09-01T05:44:44.493Z,1.40
2022-09-01T05:47:49.011Z,1.40
2022-09-01T05:50:59.878Z,1.30
2022-09-01T05:54:08.232Z,1.58
2022-09-01T05:57:33.281Z,1.70
2022-09-01T06:00:34.888Z,1.50
2022-09-01T06:03:38.262Z,1.75
2022-09-01T06:07:06.792Z,1.60
2022-09-01T06:10:14.933Z,1.30
2022-09-01T06:13:21.888Z,1.60
2022-09-01T06:16:31.322Z,1.40
2022-09-01T06:19:37.219Z,1.50
2022-09-01T06:22:41.156Z,1.50
2022-09-01T06:25:47.583Z,1.60
2022-09-01T06:28:55.018Z,1.30
2022-09-01T06:31:59.065Z,1.40
2022-09-01T06:35:05.738Z,1.40
2022-09-01T06:38:10.740Z,1.52
2022-09-01T06:41:20.472Z,1.50
2022-09-01T06:44:23.352Z,1.40
2022-09-01T06:47:37.137Z,1.17
2022-09-01T06:54:03.122Z,1.33
2022-09-01T07:00:30.181Z,1.33
2022-09-01T07:03:33.250Z,1.30
2022-09-01T07:14:16.718Z,1.30
2022-09-01T07:17:23.229Z,1.23
2022-09-01T07:20:29.464Z,1.40
2022-09-01T07:26:55.055Z,1.50
2022-09-01T07:29:58.246Z,1.50
2022-09-01T07:33:41.614Z,1.27
2022-09-01T07:39:48.815Z,1.30
2022-09-01T07:42:59.127Z,1.40
2022-09-01T07:43:37.712Z,1.30
2022-09-01T07:53:43.311Z,1.30
2022-09-01T07:56:48.021Z,1.55
2022-09-01T07:59:51.882Z,1.30
2022-09-01T08:02:57.300Z,1.20
2022-09-01T08:06:08.883Z,1.33
2022-09-01T08:09:25.212Z,1.40
2022-09-01T08:12:35.225Z,1.50
2022-09-01T08:15:41.828Z,1.40
2022-09-01T08:19:03.396Z,1.25
2022-09-01T08:22:13.080Z,1.10
2022-09-01T08:25:31.401Z,1.50
2022-09-01T08:28:34.523Z,1.10
2022-09-01T08:31:36.895Z,1.30
2022-09-01T08:34:39.300Z,1.38
2022-09-01T08:37:41.581Z,1.00
2022-09-01T08:40:51.495Z,1.23
2022-09-01T08:44:38.840Z,1.33
2022-09-01T08:48:14.926Z,1.02
2022-09-01T08:51:37.055Z,1.20
2022-09-01T08:54:49.935Z,0.98
2022-09-01T08:57:59.150Z,0.75
2022-09-01T09:01:14.763Z,1.00
2022-09-01T09:04:30.288Z,1.10
2022-09-01T09:07:49.608Z,1.00
2022-09-01T09:10:59.964Z,1.10
2022-09-01T09:14:02.832Z,1.00
2022-09-01T09:17:05.379Z,1.10
2022-09-01T09:20:09.195Z,0.80
2022-09-01T09:23:24.909Z,1.10
2022-09-01T09:26:27.440Z,1.00
2022-09-01T09:29:29.956Z,0.98
2022-09-01T09:36:37.385Z,0.80
2022-09-01T09:39:40.368Z,0.95
2022-09-01T09:43:01.992Z,0.80
2022-09-01T09:46:25.763Z,0.75
2022-09-01T09:49:34.579Z,0.75
2022-09-01T09:52:38.941Z,0.82
2022-09-01T09:56:19.714Z,0.80
2022-09-01T09:59:53.807Z,0.90
2022-09-01T10:03:16.946Z,0.80
2022-09-01T10:06:42.082Z,0.85
2022-09-01T10:09:44.264Z,0.65
2022-09-01T10:12:46.498Z,0.70
2022-09-01T10:16:01.206Z,0.75
2022-09-01T10:19:12.553Z,0.88
2022-09-01T10:22:15.692Z,0.60
2022-09-01T10:25:21.332Z,0.90
2022-09-01T10:28:26.883Z,0.60
2022-09-01T10:31:32.716Z,0.77
2022-09-01T10:34:38.384Z,0.80
2022-09-01T10:37:41.984Z,0.60
2022-09-01T10:40:49.733Z,0.80
2022-09-01T10:43:52.434Z,0.98
2022-09-01T10:46:59.938Z,0.70
2022-09-01T10:50:25.853Z,0.70
2022-09-01T10:53:55.938Z,0.70
2022-09-01T10:57:08.742Z,0.63
2022-09-01T11:00:36.137Z,0.77
2022-09-01T11:03:52.179Z,0.70
2022-09-01T11:07:14.477Z,0.63
2022-09-01T11:10:32.080Z,0.70
2022-09-01T11:13:56.479Z,0.80
2022-09-01T11:17:19.179Z,0.50
2022-09-01T11:20:36.852Z,0.70
2022-09-01T11:23:39.390Z,0.68
2022-09-01T11:26:48.518Z,0.50
2022-09-01T11:30:02.895Z,0.70
2022-09-01T11:33:28.103Z,0.70
2022-09-01T11:36:37.168Z,0.70
2022-09-01T11:39:49.216Z,1.03
2022-09-01T11:42:54.443Z,0.60
2022-09-01T11:46:15.858Z,0.70
2022-09-01T11:49:35.127Z,0.68
2022-09-01T11:52:39.078Z,0.63
2022-09-01T11:55:44.454Z,0.50
2022-09-01T11:58:47.671Z,0.57
2022-09-01T12:01:58.399Z,0.77
2022-09-01T12:05:03.486Z,0.57
2022-09-01T12:08:18.471Z,0.65
2022-09-01T12:11:32.917Z,0.60
2022-09-01T12:14:55.299Z,1.10
2022-09-01T12:18:21.049Z,0.80
2022-09-01T12:21:42.938Z,0.80
2022-09-01T12:24:47.959Z,0.50
2022-09-01T12:27:51.514Z,0.63
2022-09-01T12:30:55.549Z,0.77
2022-09-01T12:33:57.902Z,0.60
2022-09-01T12:37:24.556Z,0.70
2022-09-01T12:40:35.137Z,0.57
2022-09-01T12:43:39.786Z,0.60
2022-09-01T12:46:46.440Z,0.70
2022-09-01T12:49:52.044Z,0.60
2022-09-01T12:52:58.388Z,0.50
2022-09-01T12:56:05.506Z,0.38
2022-09-01T12:59:36.204Z,0.70
2022-09-01T13:02:46.665Z,0.65
2022-09-01T13:05:54.440Z,0.70
2022-09-01T13:08:56.730Z,0.70
2022-09-01T13:12:20.725Z,0.60
2022-09-01T13:15:23.089Z,0.32
2022-09-01T13:18:26.676Z,0.63
2022-09-01T13:21:30.500Z,0.60
2022-09-01T13:24:32.968Z,0.52
2022-09-01T13:27:35.175Z,0.50
2022-09-01T13:30:38.445Z,0.60
2022-09-01T13:37:03.247Z,0.55
2022-09-01T13:40:08.535Z,0.50
2022-09-01T13:43:11.894Z,0.70
2022-09-01T13:46:14.352Z,0.50
2022-09-01T13:52:40.868Z,0.70
2022-09-01T13:55:43.753Z,0.60
2022-09-01T13:58:48.875Z,0.50
2022-09-01T14:01:51.424Z,0.52
2022-09-01T14:04:53.772Z,0.60
2022-09-01T14:07:57.207Z,0.50
2022-09-01T14:11:00.217Z,0.60
2022-09-01T14:14:02.793Z,0.50
2022-09-01T14:17:05.305Z,0.45
2022-09-01T14:20:12.935Z,0.45
2022-09-01T14:23:16.054Z,0.40
2022-09-01T14:26:18.502Z,0.50
2022-09-01T14:29:20.714Z,0.73
2022-09-01T14:32:27.035Z,0.50
2022-09-01T14:35:33.234Z,0.47
2022-09-01T14:38:35.813Z,0.50
2022-09-01T14:41:37.952Z,0.55
2022-09-01T14:44:40.290Z,0.40
2022-09-01T14:47:44.236Z,0.60
2022-09-01T14:50:49.038Z,0.80
2022-09-01T14:53:52.780Z,0.50
2022-09-01T15:00:17.530Z,0.45
2022-09-01T15:03:22.837Z,0.40
2022-09-01T15:06:25.992Z,0.40
2022-09-01T15:09:28.267Z,0.50
2022-09-01T15:12:31.190Z,0.65
2022-09-01T15:15:34.046Z,0.45
2022-09-01T15:18:36.241Z,0.52
2022-09-01T15:21:40.581Z,0.40
2022-09-01T15:24:43.738Z,0.60
2022-09-01T15:27:46.820Z,0.43
2022-09-01T15:30:49.223Z,0.50
2022-09-01T15:33:51.913Z,0.40
2022-09-01T15:36:54.399Z,0.60
2022-09-01T15:39:56.598Z,0.50
2022-09-01T15:43:00.251Z,0.60
2022-09-01T15:46:04.624Z,0.60
2022-09-01T15:49:09.470Z,0.50
2022-09-01T15:52:11.670Z,0.60
2022-09-01T15:55:13.822Z,0.70
2022-09-01T15:58:19.224Z,0.80
2022-09-01T16:01:22.439Z,0.63
2022-09-01T16:04:27.797Z,0.70
2022-09-01T16:07:30.382Z,0.80
2022-09-01T16:10:35.076Z,0.80
2022-09-01T16:13:43.042Z,0.52
2022-09-01T16:16:57.989Z,0.65
2022-09-01T16:20:06.822Z,0.68
2022-09-01T16:23:12.950Z,0.70
2022-09-01T16:26:20.470Z,0.60
2022-09-01T16:30:12.701Z,0.60
2022-09-01T16:33:20.520Z,0.57
2022-09-01T16:36:47.923Z,0.60
2022-09-01T16:40:14.210Z,0.75
2022-09-01T16:43:27.137Z,0.70
2022-09-01T16:46:45.707Z,0.50
2022-09-01T16:50:09.885Z,0.73
2022-09-01T16:53:18.972Z,0.80
2022-09-01T16:56:21.349Z,0.80
2022-09-01T16:59:36.841Z,0.73
2022-09-01T17:03:08.190Z,0.93
2022-09-01T17:06:57.285Z,0.70
2022-09-01T17:10:22.615Z,1.03
2022-09-01T17:13:44.963Z,0.50
2022-09-01T17:16:49.463Z,0.82
2022-09-01T17:19:54.508Z,0.82
2022-09-01T17:22:59.365Z,0.77
2022-09-01T17:26:12.646Z,0.80
2022-09-01T17:29:24.717Z,0.70
2022-09-01T17:33:15.284Z,0.80
2022-09-01T17:36:46.984Z,0.63
2022-09-01T17:40:16.582Z,0.77
2022-09-01T17:43:45.657Z,0.88
2022-09-01T17:47:10.251Z,0.80
2022-09-01T17:50:18.123Z,0.70
2022-09-01T17:53:35.027Z,0.60
2022-09-01T17:56:55.123Z,1.00
2022-09-01T18:00:44.647Z,0.63
2022-09-01T18:04:23.542Z,0.57
2022-09-01T18:07:47.719Z,0.98
2022-09-01T18:10:58.494Z,1.25
2022-09-01T18:14:17.053Z,0.70
2022-09-01T18:17:29.441Z,0.60
2022-09-01T18:20:45.663Z,0.70
2022-09-01T18:23:52.820Z,0.85
2022-09-01T18:26:55.116Z,0.88
2022-09-01T18:29:57.542Z,0.85
2022-09-01T18:33:08.364Z,0.70
2022-09-01T18:36:31.335Z,0.80
2022-09-01T18:40:03.963Z,0.82
2022-09-01T18:43:43.022Z,0.70
2022-09-01T18:46:54.896Z,1.00
2022-09-01T18:50:12.223Z,0.70
2022-09-01T18:53:24.557Z,0.77
2022-09-01T18:56:26.702Z,0.70
2022-09-01T18:59:37.623Z,0.90
2022-09-01T19:02:56.803Z,1.00
2022-09-01T19:06:30.034Z,0.80
2022-09-01T19:09:51.133Z,0.70
2022-09-01T19:13:14.600Z,0.80
2022-09-01T19:16:46.838Z,0.80
2022-09-01T19:19:52.306Z,1.00
2022-09-01T19:23:36.064Z,0.90
2022-09-01T19:26:42.881Z,0.80
2022-09-01T19:29:53.201Z,0.90
2022-09-01T19:32:59.541Z,0.70
2022-09-01T19:36:07.221Z,0.90
2022-09-01T19:39:17.431Z,0.73
2022-09-01T19:42:43.303Z,0.73
2022-09-01T19:45:56.894Z,0.77
2022-09-01T19:49:17.353Z,1.20
2022-09-01T19:52:47.917Z,0.90
2022-09-01T19:56:19.262Z,0.95
2022-09-01T19:59:43.184Z,0.90
2022-09-01T20:03:05.291Z,0.70
2022-09-01T20:06:11.064Z,0.80
2022-09-01T20:09:20.651Z,0.93
2022-09-01T20:12:31.431Z,0.90
2022-09-01T20:15:42.456Z,0.90
2022-09-01T20:18:48.944Z,0.70
2022-09-01T20:21:51.327Z,0.80
2022-09-01T20:24:58.346Z,1.00
2022-09-01T20:28:04.091Z,0.90
2022-09-01T20:31:17.318Z,0.80
2022-09-01T20:34:42.421Z,0.80
2022-09-01T20:37:49.605Z,0.85
2022-09-01T20:40:51.836Z,0.80
2022-09-01T20:43:56.371Z,1.00
2022-09-01T20:46:58.601Z,0.98
2022-09-01T20:50:02.727Z,0.85
2022-09-01T20:53:26.456Z,1.30
2022-09-01T20:57:00.790Z,0.65
2022-09-01T21:00:16.003Z,0.80
2022-09-01T21:03:36.265Z,1.00
2022-09-01T21:06:49.044Z,1.00
2022-09-01T21:10:10.665Z,1.00
2022-09-01T21:13:34.487Z,0.80
2022-09-01T21:16:42.552Z,0.85
2022-09-01T21:19:59.816Z,0.90
2022-09-01T21:23:02.011Z,0.95
2022-09-01T21:26:09.210Z,1.10
2022-09-01T21:29:43.763Z,1.00
2022-09-01T21:32:46.043Z,0.90
2022-09-01T21:35:48.270Z,1.00
2022-09-01T21:38:50.691Z,1.15
2022-09-01T21:41:53.330Z,0.82
2022-09-01T21:44:56.781Z,0.75
2022-09-01T21:47:59.292Z,0.90
2022-09-01T21:51:04.761Z,0.90
2022-09-01T21:54:07.479Z,0.82
2022-09-01T21:57:10.092Z,1.02
2022-09-01T22:00:25.492Z,1.13
2022-09-01T22:03:27.793Z,1.10
2022-09-01T22:06:30.555Z,1.00
2022-09-01T22:09:32.967Z,1.10
2022-09-01T22:12:40.370Z,0.90
2022-09-01T22:15:45.828Z,0.80
2022-09-01T22:18:48.394Z,0.93
2022-09-01T22:21:50.968Z,0.82
2022-09-01T22:24:53.204Z,0.95
2022-09-01T22:27:58.692Z,0.98
2022-09-01T22:31:01.444Z,1.05
2022-09-01T22:34:04.548Z,0.88
2022-09-01T22:37:06.812Z,1.00
2022-09-01T22:40:10.246Z,1.13
2022-09-01T22:43:16.738Z,1.00
2022-09-01T22:46:21.270Z,1.10
2022-09-01T22:49:24.312Z,1.00
2022-09-01T22:52:26.660Z,1.00
2022-09-01T22:55:28.864Z,1.00
2022-09-01T22:58:31.037Z,1.00
2022-09-01T23:01:37.369Z,0.90
2022-09-01T23:04:42.449Z,0.90
2022-09-01T23:07:44.701Z,1.13
2022-09-01T23:10:47.019Z,0.90
2022-09-01T23:13:49.284Z,0.95
2022-09-01T23:16:52.836Z,0.88
2022-09-01T23:19:55.281Z,0.80
2022-09-01T23:22:57.476Z,1.17
2022-09-01T23:26:05.514Z,1.10
2022-09-01T23:29:07.761Z,0.90
2022-09-01T23:32:10.079Z,1.40
2022-09-01T23:35:12.655Z,1.00
2022-09-01T23:38:18.041Z,1.00
2022-09-01T23:41:24.303Z,1.15
2022-09-01T23:44:26.477Z,0.90
2022-09-01T23:47:28.696Z,1.17
2022-09-01T23:50:30.914Z,1.02
2022-09-01T23:53:35.407Z,1.27
2022-09-01T23:56:38.384Z,1.00
2022-09-01T23:59:40.565Z,1.10
